TimeCST,TemperatureF,Dew PointF,Humidity,Sea Level PressureIn,VisibilityMPH,Wind Direction,Wind SpeedMPH,Gust SpeedMPH,PrecipitationIn,Events,Conditions,WindDirDegrees,DateUTC
12:52 AM,33.1,27.0,78,30.10,6.0,SSE,10.4,-,N/A,,Haze,150,2013-02-07 06:52:00
1:52 AM,32.0,28.0,85,30.11,6.0,South,5.8,-,N/A,,Clear,170,2013-02-07 07:52:00
2:52 AM,33.1,28.0,82,30.09,6.0,SSE,8.1,-,N/A,,Haze,150,2013-02-07 08:52:00
3:52 AM,32.0,28.9,88,30.08,4.0,SSE,9.2,-,0.01,,Overcast,150,2013-02-07 09:52:00
4:09 AM,32.0,28.4,87,30.05,4.0,SSE,8.1,-,0.01,Rain,Light Freezing Rain,150,2013-02-07 10:09:00
4:52 AM,32.0,30.0,92,30.08,3.0,SSE,8.1,-,0.05,Rain,Light Freezing Rain,160,2013-02-07 10:52:00
5:48 AM,32.0,30.2,93,30.04,4.0,SSE,8.1,-,0.03,,Overcast,160,2013-02-07 11:48:00
5:52 AM,32.0,30.0,92,30.07,4.0,SSE,9.2,-,0.03,,Overcast,160,2013-02-07 11:52:00
6:00 AM,33.8,30.2,87,30.04,4.0,SSE,5.8,-,0.00,Rain,Light Freezing Rain,160,2013-02-07 12:00:00
6:22 AM,33.8,30.2,87,30.03,2.5,SSE,8.1,-,0.02,Rain,Light Freezing Rain,150,2013-02-07 12:22:00
6:30 AM,33.8,30.2,87,30.03,3.0,SE,8.1,-,0.03,Rain,Light Freezing Rain,140,2013-02-07 12:30:00
6:52 AM,33.1,30.9,92,30.05,2.5,SSE,6.9,-,0.04,Snow,Light Snow,150,2013-02-07 12:52:00
7:02 AM,33.8,30.2,87,30.03,2.0,SE,6.9,-,0.00,Snow,Light Snow,140,2013-02-07 13:02:00
7:21 AM,33.8,30.2,87,30.02,2.0,SE,8.1,-,0.00,Snow,Light Snow,140,2013-02-07 13:21:00
7:52 AM,33.1,30.9,92,30.04,2.0,SSE,8.1,-,0.01,Snow,Light Snow,150,2013-02-07 13:52:00
8:30 AM,33.8,30.2,87,30.01,2.5,SSE,8.1,-,0.00,,Overcast,150,2013-02-07 14:30:00
8:52 AM,33.1,30.9,92,30.03,2.5,SSE,6.9,-,0.00,Rain,Light Rain,150,2013-02-07 14:52:00
9:12 AM,33.8,30.2,87,30.00,2.5,SSE,5.8,-,0.00,Rain,Light Rain,160,2013-02-07 15:12:00
9:52 AM,33.1,32.0,96,30.01,2.5,SSE,5.8,-,0.01,Rain,Light Rain,150,2013-02-07 15:52:00
10:44 AM,33.8,32.0,93,29.99,1.8,SE,4.6,-,0.04,Rain,Rain,140,2013-02-07 16:44:00
10:52 AM,34.0,32.0,92,30.01,1.8,SSE,5.8,-,0.05,Rain,Rain,150,2013-02-07 16:52:00
11:07 AM,33.8,32.0,93,29.99,1.8,SSE,4.6,-,0.02,Rain,Rain,160,2013-02-07 17:07:00
11:52 AM,34.0,32.0,92,29.98,1.5,ESE,4.6,-,0.10,Rain,Rain,120,2013-02-07 17:52:00
12:52 PM,34.0,33.1,96,29.94,1.2,East,4.6,-,0.08,Rain,Rain,90,2013-02-07 18:52:00
1:23 PM,33.8,33.8,100,29.91,1.2,Calm,Calm,-,0.04,Rain,Rain,0,2013-02-07 19:23:00
1:52 PM,34.0,33.1,96,29.91,1.2,ENE,3.5,-,0.09,Rain,Rain,70,2013-02-07 19:52:00
2:19 PM,33.8,33.8,100,29.88,1.2,East,3.5,-,0.04,Rain,Rain,80,2013-02-07 20:19:00
2:39 PM,33.8,33.8,100,29.88,1.0,ENE,4.6,-,0.07,Rain,Rain,60,2013-02-07 20:39:00
2:52 PM,33.1,33.1,100,29.90,1.5,East,3.5,-,0.09,Snow,Light Snow,80,2013-02-07 20:52:00
2:59 PM,33.8,32.0,93,29.87,0.8,East,3.5,-,0.01,Snow,Snow,80,2013-02-07 20:59:00
3:52 PM,33.1,32.0,96,29.88,0.5,East,3.5,-,0.10,Fog-Snow,Snow,100,2013-02-07 21:52:00
4:19 PM,33.8,32.0,93,29.85,0.2,North,3.5,-,0.04,Fog-Snow,Snow,10,2013-02-07 22:19:00
4:52 PM,33.1,32.0,96,29.88,0.2,Calm,Calm,-,0.09,Fog-Snow,Snow,0,2013-02-07 22:52:00
5:11 PM,32.0,32.0,100,29.85,0.2,Calm,Calm,-,0.02,Fog-Snow,Snow,0,2013-02-07 23:11:00
5:19 PM,32.0,32.0,100,29.85,0.2,Calm,Calm,-,0.02,Fog-Snow,Snow,0,2013-02-07 23:19:00
5:29 PM,32.0,32.0,100,29.85,0.5,North,3.5,-,0.03,Fog-Snow,Snow,360,2013-02-07 23:29:00
5:40 PM,32.0,32.0,100,29.85,0.5,North,4.6,-,0.04,Fog-Snow,Light Snow,350,2013-02-07 23:40:00
5:52 PM,33.1,32.0,96,29.88,0.8,NNW,5.8,-,0.04,Snow,Light Snow,340,2013-02-07 23:52:00
5:59 PM,33.8,32.0,93,29.86,1.0,NNW,5.8,-,0.00,Snow,Light Snow,340,2013-02-07 23:59:00
6:52 PM,33.1,32.0,96,29.90,2.0,North,5.8,-,0.01,Snow,Light Snow,350,2013-02-08 00:52:00
7:27 PM,33.8,32.0,93,29.87,1.5,NNW,6.9,-,0.00,Snow,Light Snow,340,2013-02-08 01:27:00
7:52 PM,33.1,32.0,96,29.90,2.5,NNW,6.9,-,0.01,Snow,Light Snow,340,2013-02-08 01:52:00
8:48 PM,33.8,32.0,93,29.89,3.0,NNW,9.2,-,0.00,Snow,Light Snow,330,2013-02-08 02:48:00
8:52 PM,33.1,32.0,96,29.92,4.0,NNW,9.2,-,0.00,Snow,Light Snow,330,2013-02-08 02:52:00
9:27 PM,33.8,32.0,93,29.90,2.5,NW,11.5,-,0.00,Snow,Light Snow,320,2013-02-08 03:27:00
9:52 PM,33.1,32.0,96,29.94,2.5,NW,11.5,-,0.00,Snow,Light Snow,320,2013-02-08 03:52:00
10:40 PM,33.8,30.2,87,29.92,3.0,NNW,15.0,-,0.00,Snow,Light Snow,330,2013-02-08 04:40:00
10:52 PM,33.1,30.9,92,29.94,3.0,NNW,15.0,-,0.00,Snow,Light Snow,330,2013-02-08 04:52:00
11:06 PM,33.8,30.2,87,29.93,2.0,NNW,15.0,-,0.00,Snow,Light Snow,340,2013-02-08 05:06:00
11:08 PM,33.8,30.2,87,29.92,1.8,NNW,13.8,-,0.00,Snow,Light Snow,330,2013-02-08 05:08:00
11:12 PM,33.8,30.2,87,29.92,2.0,NNW,13.8,21.9,0.00,Snow,Light Snow,340,2013-02-08 05:12:00
11:19 PM,33.8,30.2,87,29.93,3.0,NNW,16.1,-,0.00,Snow,Light Snow,340,2013-02-08 05:19:00
11:25 PM,33.8,30.2,87,29.93,2.5,NNW,16.1,-,0.00,Snow,Light Snow,340,2013-02-08 05:25:00
11:47 PM,32.0,30.2,93,29.94,2.5,NNW,18.4,23.0,0.00,Snow,Light Snow,330,2013-02-08 05:47:00
11:52 PM,32.0,30.0,92,29.97,2.5,NNW,18.4,23.0,0.00,Snow,Light Snow,330,2013-02-08 05:52:00
11:58 PM,30.2,28.4,93,29.94,3.0,NNW,18.4,-,0.00,Snow,Light Snow,330,2013-02-08 05:58:00